sensor_id;sensor_type;location;lat;lon;timestamp;pressure;altitude;pressure_sealevel;temperature;humidity
7760;BME280;3924;48.830;9.262;2024-02-15T00:00:34;99086.84;;;11.19;80.41
7760;BME280;3924;48.830;9.262;2024-02-15T00:03:01;99083.84;;;11.21;80.33
7760;BME280;3924;48.830;9.262;2024-02-15T00:05:27;99088.44;;;11.20;80.44
7760;BME280;3924;48.830;9.262;2024-02-15T00:07:54;99088.16;;;11.22;80.49
7760;BME280;3924;48.830;9.262;2024-02-15T00:10:21;99082.22;;;11.20;80.32
7760;BME280;3924;48.830;9.262;2024-02-15T00:12:49;99081.97;;;11.16;80.45
7760;BME280;3924;48.830;9.262;2024-02-15T00:15:17;99081.72;;;11.13;80.59
7760;BME280;3924;48.830;9.262;2024-02-15T00:17:45;99086.34;;;11.12;80.52
7760;BME280;3924;48.830;9.262;2024-02-15T00:20:13;99088.28;;;11.07;80.59
7760;BME280;3924;48.830;9.262;2024-02-15T00:22:40;99085.31;;;11.03;80.67
7760;BME280;3924;48.830;9.262;2024-02-15T00:25:10;99085.59;;;11.02;80.68
7760;BME280;3924;48.830;9.262;2024-02-15T00:27:37;99082.38;;;11.00;80.70
7760;BME280;3924;48.830;9.262;2024-02-15T00:30:04;99084.81;;;10.96;80.97
7760;BME280;3924;48.830;9.262;2024-02-15T00:32:34;99085.91;;;10.95;80.95
7760;BME280;3924;48.830;9.262;2024-02-15T00:35:01;99078.34;;;10.92;80.96
7760;BME280;3924;48.830;9.262;2024-02-15T00:37:28;99070.72;;;10.94;80.80
7760;BME280;3924;48.830;9.262;2024-02-15T00:39:55;99074.53;;;10.93;81.30
7760;BME280;3924;48.830;9.262;2024-02-15T00:42:22;99071.03;;;10.92;81.17
7760;BME280;3924;48.830;9.262;2024-02-15T00:44:49;99077.81;;;10.90;81.11
7760;BME280;3924;48.830;9.262;2024-02-15T00:47:16;99067.53;;;10.87;81.13
7760;BME280;3924;48.830;9.262;2024-02-15T00:49:46;99069.72;;;10.85;81.34
7760;BME280;3924;48.830;9.262;2024-02-15T00:52:13;99064.31;;;10.80;81.20
7760;BME280;3924;48.830;9.262;2024-02-15T00:54:39;99063.81;;;10.78;81.47
7760;BME280;3924;48.830;9.262;2024-02-15T00:57:06;99063.53;;;10.74;81.65
7760;BME280;3924;48.830;9.262;2024-02-15T00:59:33;99070.84;;;10.79;81.33
7760;BME280;3924;48.830;9.262;2024-02-15T01:02:02;99071.38;;;10.81;81.59
7760;BME280;3924;48.830;9.262;2024-02-15T01:04:29;99059.41;;;10.82;81.53
7760;BME280;3924;48.830;9.262;2024-02-15T01:06:56;99063.22;;;10.81;81.56
7760;BME280;3924;48.830;9.262;2024-02-15T01:09:23;99060.50;;;10.86;81.43
7760;BME280;3924;48.830;9.262;2024-02-15T01:11:49;99064.81;;;10.87;81.49
7760;BME280;3924;48.830;9.262;2024-02-15T01:14:16;99052.34;;;10.86;81.49
7760;BME280;3924;48.830;9.262;2024-02-15T01:16:42;99053.97;;;10.87;81.62
7760;BME280;3924;48.830;9.262;2024-02-15T01:19:10;99050.44;;;10.86;81.51
7760;BME280;3924;48.830;9.262;2024-02-15T01:21:37;99046.38;;;10.84;81.61
7760;BME280;3924;48.830;9.262;2024-02-15T01:24:04;99058.59;;;10.81;81.71
7760;BME280;3924;48.830;9.262;2024-02-15T01:26:33;99055.13;;;10.76;81.78
7760;BME280;3924;48.830;9.262;2024-02-15T01:29:01;99051.63;;;10.70;81.89
7760;BME280;3924;48.830;9.262;2024-02-15T01:31:29;99045.16;;;10.66;81.91
7760;BME280;3924;48.830;9.262;2024-02-15T01:33:56;99049.50;;;10.62;81.92
7760;BME280;3924;48.830;9.262;2024-02-15T01:36:23;99049.28;;;10.58;82.18
7760;BME280;3924;48.830;9.262;2024-02-15T01:38:51;99058.53;;;10.52;82.25
7760;BME280;3924;48.830;9.262;2024-02-15T01:41:18;99056.94;;;10.46;82.32
7760;BME280;3924;48.830;9.262;2024-02-15T01:43:45;99057.50;;;10.43;82.33
7760;BME280;3924;48.830;9.262;2024-02-15T01:46:13;99058.59;;;10.37;82.62
7760;BME280;3924;48.830;9.262;2024-02-15T01:48:41;99061.63;;;10.30;82.64
7760;BME280;3924;48.830;9.262;2024-02-15T01:51:10;99061.63;;;10.30;82.52
7760;BME280;3924;48.830;9.262;2024-02-15T01:53:38;99062.94;;;10.33;82.81
7760;BME280;3924;48.830;9.262;2024-02-15T01:56:07;99052.94;;;10.28;82.76
7760;BME280;3924;48.830;9.262;2024-02-15T01:58:34;99056.50;;;10.24;83.00
7760;BME280;3924;48.830;9.262;2024-02-15T02:01:02;99053.50;;;10.20;83.05
7760;BME280;3924;48.830;9.262;2024-02-15T02:03:29;99053.50;;;10.15;82.95
7760;BME280;3924;48.830;9.262;2024-02-15T02:05:56;99053.25;;;10.11;83.01
7760;BME280;3924;48.830;9.262;2024-02-15T02:08:23;99052.75;;;10.09;83.24
7760;BME280;3924;48.830;9.262;2024-02-15T02:10:51;99051.09;;;10.08;83.17
7760;BME280;3924;48.830;9.262;2024-02-15T02:13:18;99053.28;;;10.06;83.35
7760;BME280;3924;48.830;9.262;2024-02-15T02:15:45;99057.06;;;10.05;83.14
7760;BME280;3924;48.830;9.262;2024-02-15T02:18:12;99054.38;;;10.00;83.42
7760;BME280;3924;48.830;9.262;2024-02-15T02:20:39;99051.44;;;9.97;83.44
7760;BME280;3924;48.830;9.262;2024-02-15T02:23:13;99042.50;;;9.96;83.52
7760;BME280;3924;48.830;9.262;2024-02-15T02:25:40;99040.31;;;9.98;83.47
7760;BME280;3924;48.830;9.262;2024-02-15T02:28:11;99046.00;;;9.97;83.50
7760;BME280;3924;48.830;9.262;2024-02-15T02:30:38;99054.38;;;10.00;83.45
7760;BME280;3924;48.830;9.262;2024-02-15T02:33:25;99039.75;;;10.01;83.45
7760;BME280;3924;48.830;9.262;2024-02-15T02:35:55;99048.41;;;10.03;83.42
7760;BME280;3924;48.830;9.262;2024-02-15T02:38:24;99045.44;;;10.05;83.35
7760;BME280;3924;48.830;9.262;2024-02-15T02:40:52;99042.19;;;10.03;83.38
7760;BME280;3924;48.830;9.262;2024-02-15T02:43:19;99042.72;;;10.00;83.60
7760;BME280;3924;48.830;9.262;2024-02-15T02:45:46;99039.19;;;10.04;83.45
7760;BME280;3924;48.830;9.262;2024-02-15T02:48:12;99037.53;;;10.08;83.54
7760;BME280;3924;48.830;9.262;2024-02-15T02:50:39;99050.25;;;10.13;83.49
7760;BME280;3924;48.830;9.262;2024-02-15T02:53:06;99044.56;;;10.14;83.48
7760;BME280;3924;48.830;9.262;2024-02-15T02:55:32;99047.25;;;10.20;83.33
7760;BME280;3924;48.830;9.262;2024-02-15T02:57:59;99049.69;;;10.21;83.54
7760;BME280;3924;48.830;9.262;2024-02-15T03:00:26;99045.06;;;10.22;83.02
7760;BME280;3924;48.830;9.262;2024-02-15T03:02:54;99043.19;;;10.22;83.36
7760;BME280;3924;48.830;9.262;2024-02-15T03:05:23;99041.56;;;10.26;83.24
7760;BME280;3924;48.830;9.262;2024-02-15T03:07:50;99051.31;;;10.27;83.26
7760;BME280;3924;48.830;9.262;2024-02-15T03:10:18;99044.56;;;10.25;83.42
7760;BME280;3924;48.830;9.262;2024-02-15T03:12:45;99052.97;;;10.23;83.39
7760;BME280;3924;48.830;9.262;2024-02-15T03:15:15;99048.59;;;10.22;83.35
7760;BME280;3924;48.830;9.262;2024-02-15T03:17:46;99047.25;;;10.20;83.50
7760;BME280;3924;48.830;9.262;2024-02-15T03:20:13;99037.81;;;10.17;83.64
7760;BME280;3924;48.830;9.262;2024-02-15T03:22:57;99033.22;;;10.12;83.52
7760;BME280;3924;48.830;9.262;2024-02-15T03:25:25;99037.00;;;10.11;83.58
7760;BME280;3924;48.830;9.262;2024-02-15T03:27:53;99042.44;;;10.11;83.59
7760;BME280;3924;48.830;9.262;2024-02-15T03:30:26;99043.81;;;10.04;83.56
7760;BME280;3924;48.830;9.262;2024-02-15T03:32:53;99043.81;;;9.99;83.76
7760;BME280;3924;48.830;9.262;2024-02-15T03:35:22;99040.03;;;9.95;84.00
7760;BME280;3924;48.830;9.262;2024-02-15T03:37:49;99043.81;;;9.99;83.90
7760;BME280;3924;48.830;9.262;2024-02-15T03:40:20;99043.53;;;10.00;83.78
7760;BME280;3924;48.830;9.262;2024-02-15T03:42:47;99035.13;;;10.02;83.50
7760;BME280;3924;48.830;9.262;2024-02-15T03:45:14;99040.53;;;10.02;83.70
7760;BME280;3924;48.830;9.262;2024-02-15T03:47:41;99029.47;;;9.98;83.70
7760;BME280;3924;48.830;9.262;2024-02-15T03:50:08;99040.31;;;9.98;83.77
7760;BME280;3924;48.830;9.262;2024-02-15T03:52:38;99032.19;;;9.98;83.66
7760;BME280;3924;48.830;9.262;2024-02-15T03:55:05;99033.28;;;9.97;83.75
7760;BME280;3924;48.830;9.262;2024-02-15T03:57:33;99038.97;;;9.96;83.75
7760;BME280;3924;48.830;9.262;2024-02-15T04:00:00;99042.50;;;9.96;83.95
7760;BME280;3924;48.830;9.262;2024-02-15T04:02:27;99042.50;;;9.96;83.85
7760;BME280;3924;48.830;9.262;2024-02-15T04:04:55;99045.72;;;9.98;83.85
7760;BME280;3924;48.830;9.262;2024-02-15T04:07:22;99048.72;;;9.97;83.87
7760;BME280;3924;48.830;9.262;2024-02-15T04:09:51;99043.03;;;9.93;83.86
7760;BME280;3924;48.830;9.262;2024-02-15T04:12:17;99045.44;;;9.95;83.92
7760;BME280;3924;48.830;9.262;2024-02-15T04:14:45;99047.91;;;9.96;83.73
7760;BME280;3924;48.830;9.262;2024-02-15T04:17:14;99048.44;;;9.98;84.09
7760;BME280;3924;48.830;9.262;2024-02-15T04:19:44;99057.13;;;9.95;83.88
7760;BME280;3924;48.830;9.262;2024-02-15T04:22:13;99045.72;;;9.98;83.64
7760;BME280;3924;48.830;9.262;2024-02-15T04:24:43;99045.72;;;9.98;84.01
7760;BME280;3924;48.830;9.262;2024-02-15T04:27:12;99047.34;;;9.99;83.81
7760;BME280;3924;48.830;9.262;2024-02-15T04:29:41;99031.38;;;9.98;83.91
7760;BME280;3924;48.830;9.262;2024-02-15T04:32:11;99045.44;;;10.05;83.83
7760;BME280;3924;48.830;9.262;2024-02-15T04:34:39;99036.19;;;10.11;83.65
7760;BME280;3924;48.830;9.262;2024-02-15T04:37:06;99048.38;;;10.13;83.70
7760;BME280;3924;48.830;9.262;2024-02-15T04:39:34;99046.19;;;10.15;83.73
7760;BME280;3924;48.830;9.262;2024-02-15T04:42:03;99047.84;;;10.17;83.78
7760;BME280;3924;48.830;9.262;2024-02-15T04:44:32;99044.84;;;10.18;83.72
7760;BME280;3924;48.830;9.262;2024-02-15T04:47:02;99036.19;;;10.16;83.50
7760;BME280;3924;48.830;9.262;2024-02-15T04:49:31;99035.91;;;10.18;83.79
7760;BME280;3924;48.830;9.262;2024-02-15T04:51:58;99039.69;;;10.17;83.73
7760;BME280;3924;48.830;9.262;2024-02-15T04:54:27;99034.81;;;10.19;83.55
7760;BME280;3924;48.830;9.262;2024-02-15T04:56:55;99025.59;;;10.20;83.54
7760;BME280;3924;48.830;9.262;2024-02-15T04:59:23;99026.97;;;10.17;83.56
7760;BME280;3924;48.830;9.262;2024-02-15T05:01:53;99025.88;;;10.18;83.46
7760;BME280;3924;48.830;9.262;2024-02-15T05:04:19;99028.28;;;10.20;83.45
7760;BME280;3924;48.830;9.262;2024-02-15T05:06:46;99018.84;;;10.17;83.62
7760;BME280;3924;48.830;9.262;2024-02-15T05:09:13;99018.56;;;10.19;83.70
7760;BME280;3924;48.830;9.262;2024-02-15T05:11:40;99020.72;;;10.17;83.62
7760;BME280;3924;48.830;9.262;2024-02-15T05:14:08;99019.94;;;10.16;83.61
7760;BME280;3924;48.830;9.262;2024-02-15T05:16:35;99026.69;;;10.13;83.60
7760;BME280;3924;48.830;9.262;2024-02-15T05:19:09;99024.50;;;10.15;83.59
7760;BME280;3924;48.830;9.262;2024-02-15T05:21:39;99020.72;;;10.17;83.80
7760;BME280;3924;48.830;9.262;2024-02-15T05:24:07;99031.56;;;10.17;83.52
7760;BME280;3924;48.830;9.262;2024-02-15T05:26:34;99022.34;;;10.18;83.38
7760;BME280;3924;48.830;9.262;2024-02-15T05:29:02;99012.06;;;10.14;83.60
7760;BME280;3924;48.830;9.262;2024-02-15T05:31:30;99023.16;;;10.18;83.43
7760;BME280;3924;48.830;9.262;2024-02-15T05:33:57;99023.44;;;10.17;83.36
7760;BME280;3924;48.830;9.262;2024-02-15T05:36:24;99012.34;;;10.13;83.49
7760;BME280;3924;48.830;9.262;2024-02-15T05:38:53;99010.44;;;10.13;83.52
7760;BME280;3924;48.830;9.262;2024-02-15T05:41:20;99001.25;;;10.09;83.52
7760;BME280;3924;48.830;9.262;2024-02-15T05:43:47;99011.00;;;10.10;83.50
7760;BME280;3924;48.830;9.262;2024-02-15T05:46:19;99008.59;;;10.09;83.54
7760;BME280;3924;48.830;9.262;2024-02-15T05:48:50;99016.16;;;10.12;83.49
7760;BME280;3924;48.830;9.262;2024-02-15T05:51:18;99012.34;;;10.08;83.61
7760;BME280;3924;48.830;9.262;2024-02-15T05:53:45;99017.78;;;10.08;83.77
7760;BME280;3924;48.830;9.262;2024-02-15T05:56:12;99011.03;;;10.05;83.63
7760;BME280;3924;48.830;9.262;2024-02-15T05:58:40;99010.75;;;10.07;83.43
7760;BME280;3924;48.830;9.262;2024-02-15T06:01:06;99018.59;;;10.08;83.51
7760;BME280;3924;48.830;9.262;2024-02-15T06:03:34;99022.38;;;10.07;83.36
7760;BME280;3924;48.830;9.262;2024-02-15T06:06:06;99022.38;;;10.07;83.57
7760;BME280;3924;48.830;9.262;2024-02-15T06:08:34;99020.78;;;10.06;83.45
7760;BME280;3924;48.830;9.262;2024-02-15T06:11:02;99024.00;;;10.08;83.38
7760;BME280;3924;48.830;9.262;2024-02-15T06:13:29;99017.53;;;10.04;83.55
7760;BME280;3924;48.830;9.262;2024-02-15T06:16:01;99022.94;;;10.04;83.58
7760;BME280;3924;48.830;9.262;2024-02-15T06:18:29;99017.53;;;10.04;83.61
7760;BME280;3924;48.830;9.262;2024-02-15T06:20:56;99021.06;;;10.05;83.33
7760;BME280;3924;48.830;9.262;2024-02-15T06:23:26;99017.81;;;10.03;83.47
7760;BME280;3924;48.830;9.262;2024-02-15T06:25:55;99021.84;;;10.05;83.34
7760;BME280;3924;48.830;9.262;2024-02-15T06:28:24;99018.88;;;10.02;83.39
7760;BME280;3924;48.830;9.262;2024-02-15T06:31:11;99017.81;;;10.03;83.51
7760;BME280;3924;48.830;9.262;2024-02-15T06:33:56;99014.31;;;10.02;83.32
7760;BME280;3924;48.830;9.262;2024-02-15T06:36:56;99018.06;;;10.01;83.44
7760;BME280;3924;48.830;9.262;2024-02-15T06:39:44;99011.84;;;10.01;83.46
7760;BME280;3924;48.830;9.262;2024-02-15T06:42:15;99021.34;;;10.03;83.49
7760;BME280;3924;48.830;9.262;2024-02-15T06:44:48;99017.00;;;10.02;83.62
7760;BME280;3924;48.830;9.262;2024-02-15T06:47:15;99017.00;;;10.02;83.30
7760;BME280;3924;48.830;9.262;2024-02-15T06:49:45;99027.56;;;10.04;83.19
7760;BME280;3924;48.830;9.262;2024-02-15T06:52:13;99012.13;;;9.99;83.17
7760;BME280;3924;48.830;9.262;2024-02-15T06:54:41;99009.94;;;10.01;83.14
7760;BME280;3924;48.830;9.262;2024-02-15T06:57:08;99019.69;;;10.07;83.24
7760;BME280;3924;48.830;9.262;2024-02-15T06:59:34;99014.53;;;10.11;83.25
7760;BME280;3924;48.830;9.262;2024-02-15T07:02:01;99022.88;;;10.14;83.04
7760;BME280;3924;48.830;9.262;2024-02-15T07:04:31;99013.13;;;10.19;83.10
7760;BME280;3924;48.830;9.262;2024-02-15T07:06:59;99021.78;;;10.21;82.93
7760;BME280;3924;48.830;9.262;2024-02-15T07:09:28;99013.13;;;10.19;82.91
7760;BME280;3924;48.830;9.262;2024-02-15T07:11:56;99020.19;;;10.25;82.79
7760;BME280;3924;48.830;9.262;2024-02-15T07:14:25;99025.31;;;10.26;82.80
7760;BME280;3924;48.830;9.262;2024-02-15T07:16:54;99028.00;;;10.31;82.63
7760;BME280;3924;48.830;9.262;2024-02-15T07:19:25;99022.81;;;10.35;82.46
7760;BME280;3924;48.830;9.262;2024-02-15T07:21:54;99028.75;;;10.42;82.45
7760;BME280;3924;48.830;9.262;2024-02-15T07:24:22;99030.38;;;10.43;82.37
7760;BME280;3924;48.830;9.262;2024-02-15T07:26:50;99020.06;;;10.45;82.13
7760;BME280;3924;48.830;9.262;2024-02-15T07:29:19;99028.19;;;10.50;82.22
7760;BME280;3924;48.830;9.262;2024-02-15T07:31:46;99024.91;;;10.53;82.23
7760;BME280;3924;48.830;9.262;2024-02-15T07:34:13;99014.06;;;10.53;82.02
7760;BME280;3924;48.830;9.262;2024-02-15T07:36:40;99010.81;;;10.51;81.94
7760;BME280;3924;48.830;9.262;2024-02-15T07:39:08;99010.25;;;10.54;82.24
7760;BME280;3924;48.830;9.262;2024-02-15T07:41:40;99005.34;;;10.56;82.03
7760;BME280;3924;48.830;9.262;2024-02-15T07:44:07;99003.47;;;10.57;81.85
7760;BME280;3924;48.830;9.262;2024-02-15T07:46:34;99003.13;;;10.63;81.70
7760;BME280;3924;48.830;9.262;2024-02-15T07:49:02;99009.06;;;10.71;81.74
7760;BME280;3924;48.830;9.262;2024-02-15T07:51:29;99005.75;;;10.79;81.71
7760;BME280;3924;48.830;9.262;2024-02-15T07:53:55;99000.22;;;10.89;81.38
7760;BME280;3924;48.830;9.262;2024-02-15T07:56:24;98999.63;;;10.97;81.00
7760;BME280;3924;48.830;9.262;2024-02-15T07:58:51;98994.13;;;11.07;80.99
7760;BME280;3924;48.830;9.262;2024-02-15T08:01:20;98990.28;;;11.13;80.91
7760;BME280;3924;48.830;9.262;2024-02-15T08:03:52;98980.44;;;11.17;80.87
7760;BME280;3924;48.830;9.262;2024-02-15T08:06:22;98975.56;;;11.19;80.69
7760;BME280;3924;48.830;9.262;2024-02-15T08:08:52;98982.56;;;11.26;80.66
7760;BME280;3924;48.830;9.262;2024-02-15T08:11:20;98973.50;;;11.35;80.21
7760;BME280;3924;48.830;9.262;2024-02-15T08:13:51;98970.16;;;11.43;79.91
7760;BME280;3924;48.830;9.262;2024-02-15T08:16:22;98963.81;;;11.53;80.12
7760;BME280;3924;48.830;9.262;2024-02-15T08:18:50;98965.09;;;11.61;79.89
7760;BME280;3924;48.830;9.262;2024-02-15T08:21:33;98957.63;;;11.71;79.71
7760;BME280;3924;48.830;9.262;2024-02-15T08:24:03;98955.34;;;11.84;79.35
7760;BME280;3924;48.830;9.262;2024-02-15T08:26:35;98968.06;;;11.88;79.32
7760;BME280;3924;48.830;9.262;2024-02-15T08:29:04;98960.13;;;11.92;79.17
7760;BME280;3924;48.830;9.262;2024-02-15T08:31:32;98959.00;;;11.93;79.10
7760;BME280;3924;48.830;9.262;2024-02-15T08:34:02;98953.06;;;11.91;78.99
7760;BME280;3924;48.830;9.262;2024-02-15T08:36:33;98961.81;;;11.88;78.87
7760;BME280;3924;48.830;9.262;2024-02-15T08:38:59;98952.56;;;11.89;79.06
7760;BME280;3924;48.830;9.262;2024-02-15T08:41:27;98947.34;;;11.92;78.83
7760;BME280;3924;48.830;9.262;2024-02-15T08:43:54;98944.06;;;11.95;78.96
7760;BME280;3924;48.830;9.262;2024-02-15T08:46:23;98945.38;;;11.98;78.47
7760;BME280;3924;48.830;9.262;2024-02-15T08:48:51;98943.41;;;12.03;78.63
7760;BME280;3924;48.830;9.262;2024-02-15T08:51:18;98936.25;;;12.08;78.41
7760;BME280;3924;48.830;9.262;2024-02-15T08:53:50;98937.59;;;12.10;78.47
7760;BME280;3924;48.830;9.262;2024-02-15T08:56:17;98933.78;;;12.11;78.43
7760;BME280;3924;48.830;9.262;2024-02-15T08:58:44;98932.47;;;12.09;78.24
7760;BME280;3924;48.830;9.262;2024-02-15T09:01:12;98931.13;;;12.06;78.19
7760;BME280;3924;48.830;9.262;2024-02-15T09:03:40;98926.50;;;12.07;78.12
7760;BME280;3924;48.830;9.262;2024-02-15T09:06:07;98924.59;;;12.07;77.94
7760;BME280;3924;48.830;9.262;2024-02-15T09:08:34;98924.00;;;12.10;78.15
7760;BME280;3924;48.830;9.262;2024-02-15T09:11:02;98929.16;;;12.12;78.30
7760;BME280;3924;48.830;9.262;2024-02-15T09:13:31;98925.31;;;12.13;77.78
7760;BME280;3924;48.830;9.262;2024-02-15T09:16:00;98924.53;;;12.12;77.80
7760;BME280;3924;48.830;9.262;2024-02-15T09:18:27;98927.75;;;12.14;78.00
7760;BME280;3924;48.830;9.262;2024-02-15T09:20:54;98923.94;;;12.15;77.85
7760;BME280;3924;48.830;9.262;2024-02-15T09:23:22;98922.03;;;12.16;77.84
7760;BME280;3924;48.830;9.262;2024-02-15T09:25:50;98916.88;;;12.14;77.73
7760;BME280;3924;48.830;9.262;2024-02-15T09:28:18;98929.03;;;12.22;77.70
7760;BME280;3924;48.830;9.262;2024-02-15T09:30:51;98928.13;;;12.26;77.49
7760;BME280;3924;48.830;9.262;2024-02-15T09:33:19;98929.66;;;12.32;77.38
7760;BME280;3924;48.830;9.262;2024-02-15T09:35:47;98918.22;;;12.36;77.22
7760;BME280;3924;48.830;9.262;2024-02-15T09:38:14;98921.44;;;12.38;77.24
7760;BME280;3924;48.830;9.262;2024-02-15T09:40:43;98921.88;;;12.45;77.09
7760;BME280;3924;48.830;9.262;2024-02-15T09:43:10;98930.16;;;12.53;76.92
7760;BME280;3924;48.830;9.262;2024-02-15T09:45:39;98912.47;;;12.56;76.63
7760;BME280;3924;48.830;9.262;2024-02-15T09:48:07;98914.50;;;12.64;76.59
7760;BME280;3924;48.830;9.262;2024-02-15T09:50:38;98908.94;;;12.69;76.44
7760;BME280;3924;48.830;9.262;2024-02-15T09:53:06;98914.25;;;12.79;76.29
7760;BME280;3924;48.830;9.262;2024-02-15T09:55:35;98903.28;;;12.84;76.16
7760;BME280;3924;48.830;9.262;2024-02-15T09:58:02;98906.31;;;12.97;75.83
7760;BME280;3924;48.830;9.262;2024-02-15T10:00:31;98902.53;;;13.11;75.62
7760;BME280;3924;48.830;9.262;2024-02-15T10:02:59;98915.06;;;13.26;74.93
7760;BME280;3924;48.830;9.262;2024-02-15T10:05:28;98905.56;;;13.37;75.08
7760;BME280;3924;48.830;9.262;2024-02-15T10:07:54;98902.75;;;13.43;74.64
7760;BME280;3924;48.830;9.262;2024-02-15T10:10:22;98894.28;;;13.44;74.75
7760;BME280;3924;48.830;9.262;2024-02-15T10:12:50;98896.59;;;13.51;74.60
7760;BME280;3924;48.830;9.262;2024-02-15T10:18:00;98893.84;;;13.78;74.13
7760;BME280;3924;48.830;9.262;2024-02-15T10:20:28;98886.97;;;13.94;73.57
7760;BME280;3924;48.830;9.262;2024-02-15T10:25:26;98874.56;;;14.24;72.91
7760;BME280;3924;48.830;9.262;2024-02-15T10:28:04;98878.72;;;14.44;72.58
7760;BME280;3924;48.830;9.262;2024-02-15T10:30:35;98866.78;;;14.54;71.92
7760;BME280;3924;48.830;9.262;2024-02-15T10:33:03;98872.31;;;14.63;72.05
7760;BME280;3924;48.830;9.262;2024-02-15T10:35:31;98864.28;;;14.66;71.93
7760;BME280;3924;48.830;9.262;2024-02-15T10:38:08;98867.91;;;14.75;71.61
7760;BME280;3924;48.830;9.262;2024-02-15T10:40:40;98858.31;;;14.87;71.16
7760;BME280;3924;48.830;9.262;2024-02-15T10:43:10;98856.63;;;14.99;71.06
7760;BME280;3924;48.830;9.262;2024-02-15T10:45:39;98850.88;;;15.10;70.64
7760;BME280;3924;48.830;9.262;2024-02-15T10:48:10;98848.66;;;15.12;70.42
7760;BME280;3924;48.830;9.262;2024-02-15T10:50:40;98845.16;;;15.28;70.19
7760;BME280;3924;48.830;9.262;2024-02-15T10:53:30;98847.16;;;15.45;69.42
7760;BME280;3924;48.830;9.262;2024-02-15T10:58:59;98837.28;;;15.67;68.76
7760;BME280;3924;48.830;9.262;2024-02-15T11:01:29;98834.72;;;15.79;68.39
7760;BME280;3924;48.830;9.262;2024-02-15T11:04:07;98845.66;;;15.79;68.19
7760;BME280;3924;48.830;9.262;2024-02-15T11:06:35;98841.94;;;15.83;68.06
7760;BME280;3924;48.830;9.262;2024-02-15T11:09:05;98835.69;;;16.00;67.64
7760;BME280;3924;48.830;9.262;2024-02-15T11:11:34;98829.56;;;16.12;67.21
7760;BME280;3924;48.830;9.262;2024-02-15T11:14:28;98827.31;;;16.23;66.47
7760;BME280;3924;48.830;9.262;2024-02-15T11:16:56;98818.59;;;16.38;66.30
7760;BME280;3924;48.830;9.262;2024-02-15T11:22:12;98814.56;;;16.61;65.70
7760;BME280;3924;48.830;9.262;2024-02-15T11:24:47;98805.84;;;16.77;65.24
7760;BME280;3924;48.830;9.262;2024-02-15T11:27:28;98811.78;;;16.79;64.97
7760;BME280;3924;48.830;9.262;2024-02-15T11:29:59;98791.47;;;16.80;64.70
7760;BME280;3924;48.830;9.262;2024-02-15T11:40:19;98786.38;;;17.08;63.32
7760;BME280;3924;48.830;9.262;2024-02-15T11:42:46;98786.81;;;17.18;63.21
7760;BME280;3924;48.830;9.262;2024-02-15T11:45:15;98777.44;;;17.19;62.94
7760;BME280;3924;48.830;9.262;2024-02-15T11:47:47;98779.47;;;17.02;63.04
7760;BME280;3924;48.830;9.262;2024-02-15T11:50:19;98781.41;;;17.01;63.05
7760;BME280;3924;48.830;9.262;2024-02-15T11:52:47;98782.19;;;17.10;62.90
7760;BME280;3924;48.830;9.262;2024-02-15T11:55:22;98771.41;;;17.05;62.44
7760;BME280;3924;48.830;9.262;2024-02-15T11:58:02;98765.47;;;17.03;62.56
7760;BME280;3924;48.830;9.262;2024-02-15T12:00:32;98764.00;;;17.06;62.34
7760;BME280;3924;48.830;9.262;2024-02-15T12:03:18;98765.47;;;17.03;62.24
7760;BME280;3924;48.830;9.262;2024-02-15T12:06:04;98760.28;;;17.02;62.05
7760;BME280;3924;48.830;9.262;2024-02-15T12:08:54;98761.75;;;16.99;61.97
7760;BME280;3924;48.830;9.262;2024-02-15T12:11:40;98759.13;;;17.11;61.47
7760;BME280;3924;48.830;9.262;2024-02-15T12:14:25;98758.47;;;17.14;61.42
7760;BME280;3924;48.830;9.262;2024-02-15T12:17:12;98758.88;;;17.25;61.03
7760;BME280;3924;48.830;9.262;2024-02-15T12:20:01;98747.25;;;17.28;60.67
7760;BME280;3924;48.830;9.262;2024-02-15T12:22:36;98750.94;;;17.32;60.61
7760;BME280;3924;48.830;9.262;2024-02-15T12:25:07;98741.94;;;17.32;60.36
7760;BME280;3924;48.830;9.262;2024-02-15T12:27:41;98733.88;;;17.27;60.55
7760;BME280;3924;48.830;9.262;2024-02-15T12:30:16;98734.28;;;17.16;60.44
7760;BME280;3924;48.830;9.262;2024-02-15T12:32:47;98738.81;;;17.12;60.60
7760;BME280;3924;48.830;9.262;2024-02-15T12:35:16;98737.34;;;17.15;60.47
7760;BME280;3924;48.830;9.262;2024-02-15T12:40:33;98726.44;;;17.06;60.34
7760;BME280;3924;48.830;9.262;2024-02-15T12:43:00;98716.34;;;16.98;60.47
7760;BME280;3924;48.830;9.262;2024-02-15T12:45:27;98705.56;;;16.93;60.66
7760;BME280;3924;48.830;9.262;2024-02-15T12:47:57;98705.09;;;16.91;60.43
7760;BME280;3924;48.830;9.262;2024-02-15T12:50:30;98694.78;;;16.88;60.50
7760;BME280;3924;48.830;9.262;2024-02-15T12:52:57;98694.31;;;16.86;60.29
7760;BME280;3924;48.830;9.262;2024-02-15T12:55:34;98689.66;;;16.86;60.35
7760;BME280;3924;48.830;9.262;2024-02-15T12:58:03;98690.38;;;16.75;60.41
7760;BME280;3924;48.830;9.262;2024-02-15T13:00:31;98689.09;;;16.63;60.82
7760;BME280;3924;48.830;9.262;2024-02-15T13:03:02;98683.16;;;16.61;60.41
7760;BME280;3924;48.830;9.262;2024-02-15T13:05:31;98670.56;;;16.60;60.55
7760;BME280;3924;48.830;9.262;2024-02-15T13:08:01;98670.13;;;16.58;60.57
7760;BME280;3924;48.830;9.262;2024-02-15T13:10:29;98659.84;;;16.55;60.57
7760;BME280;3924;48.830;9.262;2024-02-15T13:12:56;98665.03;;;16.48;60.86
7760;BME280;3924;48.830;9.262;2024-02-15T13:15:24;98660.69;;;16.38;60.63
7760;BME280;3924;48.830;9.262;2024-02-15T13:18:00;98654.13;;;16.31;60.90
7760;BME280;3924;48.830;9.262;2024-02-15T13:20:32;98653.84;;;16.24;60.94
7760;BME280;3924;48.830;9.262;2024-02-15T13:23:00;98652.91;;;16.20;61.14
7760;BME280;3924;48.830;9.262;2024-02-15T13:25:29;98645.81;;;16.19;60.76
7760;BME280;3924;48.830;9.262;2024-02-15T13:27:57;98634.06;;;16.18;60.84
7760;BME280;3924;48.830;9.262;2024-02-15T13:30:26;98645.16;;;16.22;60.71
7760;BME280;3924;48.830;9.262;2024-02-15T13:32:54;98643.56;;;16.21;60.70
7760;BME280;3924;48.830;9.262;2024-02-15T13:35:21;98640.34;;;16.19;61.05
7760;BME280;3924;48.830;9.262;2024-02-15T13:37:51;98644.38;;;16.21;60.54
7760;BME280;3924;48.830;9.262;2024-02-15T13:40:21;98639.03;;;16.25;60.65
7760;BME280;3924;48.830;9.262;2024-02-15T13:42:54;98629.97;;;16.33;60.33
7760;BME280;3924;48.830;9.262;2024-02-15T13:45:23;98632.81;;;16.45;60.22
7760;BME280;3924;48.830;9.262;2024-02-15T13:47:50;98621.03;;;16.53;59.86
7760;BME280;3924;48.830;9.262;2024-02-15T13:50:20;98627.28;;;16.62;59.79
7760;BME280;3924;48.830;9.262;2024-02-15T13:52:47;98631.94;;;16.71;59.24
7760;BME280;3924;48.830;9.262;2024-02-15T13:55:17;98628.31;;;16.79;58.98